Time;durP1;ratioP1;P1;durP2;ratioP2;P2;SDS_P1;SDS_P2;PMS_P1;PMS_P2;Temp;Humidity;BMP_temperature;BMP_pressure;BME280_temperature;BME280_humidity;BME280_pressure;Samples;Min_cycle;Max_cycle;Signal;HPM_P1;HPM_P2
2023/09/19 00:00:43;;;;;;;3.53;0.85;;;;;;;;;;4880384;29;20032;-76
2023/09/19 00:03:08;;;;;;;1.55;0.73;;;;;;;;;;4883045;29;20116;-76
2023/09/19 00:05:34;;;;;;;2.67;1.00;;;;;;;;;;4889648;29;20104;-76
2023/09/19 00:08:00;;;;;;;3.13;0.90;;;;;;;;;;4889015;29;20040;-77
2023/09/19 00:10:26;;;;;;;5.95;1.25;;;;;;;;;;4879381;29;20437;-77
2023/09/19 00:12:55;;;;;;;3.40;1.10;;;;;;;;;;4884452;29;20072;-77
2023/09/19 00:15:24;;;;;;;3.50;1.00;;;;;;;;;;4882843;29;20048;-77
2023/09/19 00:17:52;;;;;;;1.88;0.75;;;;;;;;;;4884763;29;20521;-77
2023/09/19 00:20:17;;;;;;;4.18;1.10;;;;;;;;;;4887391;29;20100;-77
2023/09/19 00:22:43;;;;;;;3.78;1.20;;;;;;;;;;4884472;29;20557;-77
2023/09/19 00:25:09;;;;;;;3.08;0.90;;;;;;;;;;4882228;29;20150;-77
2023/09/19 00:27:35;;;;;;;2.33;0.70;;;;;;;;;;4886584;29;20044;-77
2023/09/19 00:30:00;;;;;;;2.80;0.85;;;;;;;;;;4887105;29;20024;-77
2023/09/19 00:32:30;;;;;;;4.57;0.95;;;;;;;;;;4884298;29;20048;-77
2023/09/19 00:34:56;;;;;;;2.55;0.93;;;;;;;;;;4889114;29;20123;-77
2023/09/19 00:37:21;;;;;;;3.03;1.10;;;;;;;;;;4883258;29;20511;-77
2023/09/19 00:39:46;;;;;;;3.60;1.10;;;;;;;;;;4881933;29;20053;-77
2023/09/19 00:42:19;;;;;;;2.87;1.00;;;;;;;;;;4884106;29;20307;-78
2023/09/19 00:44:44;;;;;;;4.15;1.00;;;;;;;;;;4888783;29;20284;-76
2023/09/19 00:47:15;;;;;;;3.50;1.37;;;;;;;;;;4883619;29;20021;-77
2023/09/19 00:49:40;;;;;;;4.68;1.20;;;;;;;;;;4889751;29;20793;-76
2023/09/19 00:52:06;;;;;;;2.78;0.75;;;;;;;;;;4883946;29;20028;-77
2023/09/19 00:54:33;;;;;;;3.50;1.17;;;;;;;;;;4889695;29;20037;-78
2023/09/19 00:56:59;;;;;;;4.13;1.17;;;;;;;;;;4884085;29;20029;-77
2023/09/19 00:59:24;;;;;;;2.53;1.00;;;;;;;;;;4886089;29;20051;-78
2023/09/19 01:01:53;;;;;;;2.15;0.88;;;;;;;;;;4889689;29;20076;-77
2023/09/19 01:04:19;;;;;;;2.88;0.95;;;;;;;;;;4885614;29;20071;-77
2023/09/19 01:06:45;;;;;;;3.40;1.02;;;;;;;;;;4884434;29;20060;-77
2023/09/19 01:09:10;;;;;;;4.85;1.30;;;;;;;;;;4885694;29;20040;-76
2023/09/19 01:11:40;;;;;;;2.00;0.90;;;;;;;;;;4886636;29;20215;-77
2023/09/19 01:14:14;;;;;;;3.05;0.88;;;;;;;;;;4885250;29;20036;-77
2023/09/19 01:16:46;;;;;;;2.38;1.00;;;;;;;;;;4887620;29;20036;-77
2023/09/19 01:19:28;;;;;;;2.28;1.00;;;;;;;;;;4883657;29;20036;-77
2023/09/19 01:22:02;;;;;;;3.22;1.05;;;;;;;;;;4881008;29;20028;-77
2023/09/19 01:24:54;;;;;;;3.03;0.90;;;;;;;;;;4882809;29;20149;-77
2023/09/19 01:27:43;;;;;;;2.97;0.80;;;;;;;;;;4886844;29;20036;-76
2023/09/19 01:30:09;;;;;;;2.88;0.80;;;;;;;;;;4887905;29;20513;-77
2023/09/19 01:32:37;;;;;;;3.00;1.30;;;;;;;;;;4882734;29;20037;-77
2023/09/19 01:35:06;;;;;;;5.57;1.67;;;;;;;;;;4883906;29;20060;-76
2023/09/19 01:37:31;;;;;;;3.60;1.27;;;;;;;;;;4882781;29;20041;-76
2023/09/19 01:39:57;;;;;;;3.10;1.25;;;;;;;;;;4886356;29;20040;-77
2023/09/19 01:42:26;;;;;;;3.22;0.95;;;;;;;;;;4883961;29;20502;-77
2023/09/19 01:45:04;;;;;;;4.70;1.30;;;;;;;;;;4888783;29;20029;-77
2023/09/19 01:47:34;;;;;;;2.45;1.15;;;;;;;;;;4877450;29;20520;-78
2023/09/19 01:50:18;;;;;;;4.28;1.90;;;;;;;;;;4883956;29;20036;-77
2023/09/19 01:52:48;;;;;;;4.07;1.20;;;;;;;;;;4882766;29;20383;-77
2023/09/19 01:55:17;;;;;;;2.40;1.00;;;;;;;;;;4884536;29;20493;-78
2023/09/19 01:57:50;;;;;;;3.58;1.23;;;;;;;;;;4886596;29;20405;-77
2023/09/19 02:00:18;;;;;;;2.60;1.00;;;;;;;;;;4894509;29;20038;-77
2023/09/19 02:02:47;;;;;;;4.00;1.27;;;;;;;;;;4883007;29;20036;-77
2023/09/19 02:05:12;;;;;;;4.93;1.60;;;;;;;;;;4884080;29;20087;-77
2023/09/19 02:07:38;;;;;;;6.65;1.95;;;;;;;;;;4886943;29;20109;-77
2023/09/19 02:10:06;;;;;;;3.35;1.48;;;;;;;;;;4885817;29;20037;-77
2023/09/19 02:12:35;;;;;;;2.72;1.20;;;;;;;;;;4887790;29;20037;-77
2023/09/19 02:15:02;;;;;;;3.58;1.50;;;;;;;;;;4879874;29;20044;-77
2023/09/19 02:17:28;;;;;;;5.57;1.50;;;;;;;;;;4879437;29;20040;-77
2023/09/19 02:19:54;;;;;;;5.73;1.40;;;;;;;;;;4886430;29;20032;-76
2023/09/19 02:22:22;;;;;;;4.63;1.73;;;;;;;;;;4882092;29;20269;-77
2023/09/19 02:24:48;;;;;;;3.63;1.33;;;;;;;;;;4888430;29;20040;-77
2023/09/19 02:27:15;;;;;;;3.05;1.20;;;;;;;;;;4882328;29;20040;-77
2023/09/19 02:29:40;;;;;;;2.90;1.20;;;;;;;;;;4879829;29;20527;-77
2023/09/19 02:32:06;;;;;;;3.40;1.65;;;;;;;;;;4885127;29;20040;-76
2023/09/19 02:34:31;;;;;;;4.95;1.30;;;;;;;;;;4880854;29;20041;-77
2023/09/19 02:36:57;;;;;;;4.18;1.40;;;;;;;;;;4886490;29;20044;-78
2023/09/19 02:39:23;;;;;;;6.38;1.50;;;;;;;;;;4884553;29;20029;-76
2023/09/19 02:41:48;;;;;;;3.90;1.10;;;;;;;;;;4880945;29;20026;-77
2023/09/19 02:44:14;;;;;;;4.68;1.58;;;;;;;;;;4885596;29;20032;-78
2023/09/19 02:46:39;;;;;;;5.00;1.20;;;;;;;;;;4896651;29;20029;-77
2023/09/19 02:49:07;;;;;;;3.10;1.00;;;;;;;;;;4887416;29;20123;-76
2023/09/19 02:51:33;;;;;;;2.28;0.85;;;;;;;;;;4881142;29;20623;-77
2023/09/19 02:54:02;;;;;;;4.13;0.90;;;;;;;;;;4887864;29;20140;-77
2023/09/19 02:56:28;;;;;;;2.20;1.00;;;;;;;;;;4877849;29;20068;-77
2023/09/19 02:58:53;;;;;;;3.35;1.00;;;;;;;;;;4882263;29;20108;-77
2023/09/19 03:01:18;;;;;;;2.03;1.00;;;;;;;;;;4884914;29;20516;-77
2023/09/19 03:03:44;;;;;;;2.55;0.95;;;;;;;;;;4885256;29;20021;-77
2023/09/19 03:06:10;;;;;;;1.90;0.90;;;;;;;;;;4883481;29;20062;-77
2023/09/19 03:08:36;;;;;;;3.80;1.00;;;;;;;;;;4967658;23;20044;-78
2023/09/19 03:11:05;;;;;;;2.38;0.88;;;;;;;;;;4934895;29;20035;-79
2023/09/19 03:13:31;;;;;;;2.97;1.10;;;;;;;;;;4926226;29;20107;-79
2023/09/19 03:15:58;;;;;;;3.97;1.02;;;;;;;;;;4914997;29;20062;-79
2023/09/19 03:18:26;;;;;;;3.03;0.98;;;;;;;;;;4924377;29;20024;-79
2023/09/19 03:20:55;;;;;;;2.53;0.90;;;;;;;;;;4923366;29;20024;-79
2023/09/19 03:23:21;;;;;;;2.97;1.27;;;;;;;;;;4923681;29;20032;-79
2023/09/19 03:25:47;;;;;;;11.93;4.93;;;;;;;;;;4939250;29;20083;-79
2023/09/19 03:28:13;;;;;;;2.35;1.00;;;;;;;;;;4928127;29;20090;-78
2023/09/19 03:30:38;;;;;;;5.00;1.25;;;;;;;;;;4927178;29;20114;-79
2023/09/19 03:33:04;;;;;;;2.95;1.00;;;;;;;;;;4924684;29;20031;-79
2023/09/19 03:35:30;;;;;;;5.45;1.02;;;;;;;;;;4931593;29;20032;-79
2023/09/19 03:37:55;;;;;;;12.70;10.52;;;;;;;;;;4928338;29;20039;-78
2023/09/19 03:40:21;;;;;;;3.05;1.00;;;;;;;;;;4927107;29;20036;-79
2023/09/19 03:42:48;;;;;;;2.15;0.80;;;;;;;;;;4937581;29;20031;-79
2023/09/19 03:45:15;;;;;;;3.83;1.05;;;;;;;;;;4930931;29;20028;-79
2023/09/19 03:47:47;;;;;;;3.13;1.00;;;;;;;;;;4939336;29;20023;-79
2023/09/19 03:50:15;;;;;;;2.03;0.90;;;;;;;;;;4930933;29;20028;-79
2023/09/19 03:52:40;;;;;;;3.17;1.05;;;;;;;;;;4932394;29;20051;-79
2023/09/19 03:55:06;;;;;;;3.25;1.08;;;;;;;;;;4906134;29;20035;-79
2023/09/19 03:57:31;;;;;;;4.00;1.30;;;;;;;;;;4930513;29;20512;-79
2023/09/19 03:59:56;;;;;;;2.90;1.00;;;;;;;;;;4927022;29;20040;-79
2023/09/19 04:02:22;;;;;;;3.17;0.90;;;;;;;;;;4932072;29;20412;-79
2023/09/19 04:04:48;;;;;;;3.38;1.00;;;;;;;;;;4934299;29;20280;-79
2023/09/19 04:07:14;;;;;;;2.97;1.25;;;;;;;;;;4930536;29;20043;-79
2023/09/19 04:09:39;;;;;;;3.17;1.08;;;;;;;;;;4922192;29;20024;-78
2023/09/19 04:12:05;;;;;;;2.50;1.20;;;;;;;;;;4931634;29;20156;-79
2023/09/19 04:14:30;;;;;;;3.25;1.20;;;;;;;;;;4934671;29;20272;-78
2023/09/19 04:16:55;;;;;;;4.43;1.30;;;;;;;;;;4934426;29;20507;-78
2023/09/19 04:19:22;;;;;;;2.60;0.90;;;;;;;;;;4932084;29;20087;-78
2023/09/19 04:21:48;;;;;;;3.33;0.80;;;;;;;;;;4927343;29;20275;-78
2023/09/19 04:24:13;;;;;;;2.83;1.00;;;;;;;;;;4930279;29;20062;-78
2023/09/19 04:26:39;;;;;;;5.50;2.13;;;;;;;;;;4928788;29;20028;-78
2023/09/19 04:29:05;;;;;;;3.65;1.42;;;;;;;;;;4930427;29;20035;-78
2023/09/19 04:31:31;;;;;;;4.10;1.17;;;;;;;;;;4928908;29;20032;-78
2023/09/19 04:33:56;;;;;;;5.25;1.73;;;;;;;;;;4923644;29;20122;-78
2023/09/19 04:36:22;;;;;;;3.78;1.10;;;;;;;;;;4929375;29;20043;-78
2023/09/19 04:38:47;;;;;;;4.95;1.38;;;;;;;;;;4929621;29;20059;-78
2023/09/19 04:41:13;;;;;;;4.43;1.40;;;;;;;;;;4930904;29;20047;-78
2023/09/19 04:43:38;;;;;;;4.32;1.55;;;;;;;;;;4927270;29;20304;-78
2023/09/19 04:46:06;;;;;;;4.37;1.60;;;;;;;;;;4926420;29;20452;-78
2023/09/19 04:48:34;;;;;;;4.22;1.70;;;;;;;;;;4908420;29;20283;-77
2023/09/19 04:50:59;;;;;;;3.90;1.50;;;;;;;;;;4926162;29;20064;-78
2023/09/19 04:53:24;;;;;;;3.83;1.30;;;;;;;;;;4930784;29;20058;-78
2023/09/19 04:55:51;;;;;;;2.73;1.47;;;;;;;;;;4928222;29;20039;-79
2023/09/19 04:58:17;;;;;;;4.00;1.50;;;;;;;;;;4922290;29;20299;-79
2023/09/19 05:00:43;;;;;;;3.65;1.30;;;;;;;;;;4928746;29;20034;-78
2023/09/19 05:03:08;;;;;;;11.13;2.45;;;;;;;;;;4927320;29;20036;-78
2023/09/19 05:05:34;;;;;;;5.68;1.35;;;;;;;;;;4928596;29;20079;-79
2023/09/19 05:07:59;;;;;;;3.80;1.58;;;;;;;;;;4921189;29;20028;-79
2023/09/19 05:10:25;;;;;;;3.93;1.20;;;;;;;;;;4929483;29;20036;-78
2023/09/19 05:12:52;;;;;;;2.97;1.15;;;;;;;;;;4932408;29;20855;-78
2023/09/19 05:15:17;;;;;;;3.08;1.23;;;;;;;;;;4933706;29;20036;-78
2023/09/19 05:17:47;;;;;;;3.77;0.93;;;;;;;;;;4928396;29;20382;-79
2023/09/19 05:20:24;;;;;;;7.28;1.27;;;;;;;;;;4928436;29;20316;-79
2023/09/19 05:22:50;;;;;;;4.60;1.50;;;;;;;;;;4925901;29;20512;-79
2023/09/19 05:25:18;;;;;;;4.03;1.42;;;;;;;;;;4928489;29;20058;-78
2023/09/19 05:27:44;;;;;;;5.88;2.10;;;;;;;;;;4931670;29;20024;-79
2023/09/19 05:30:09;;;;;;;4.60;1.50;;;;;;;;;;4926407;29;20043;-78
2023/09/19 05:32:34;;;;;;;2.95;1.17;;;;;;;;;;4924967;29;20070;-78
2023/09/19 05:34:59;;;;;;;3.88;1.25;;;;;;;;;;4930654;29;20114;-78
2023/09/19 05:37:26;;;;;;;3.23;1.27;;;;;;;;;;4933212;29;20423;-78
2023/09/19 05:39:51;;;;;;;2.47;1.20;;;;;;;;;;4928792;29;20288;-78
2023/09/19 05:42:17;;;;;;;3.13;1.10;;;;;;;;;;4929520;29;20043;-78
2023/09/19 05:44:42;;;;;;;2.83;1.13;;;;;;;;;;4925068;29;20409;-79
2023/09/19 05:47:08;;;;;;;3.47;1.10;;;;;;;;;;4927963;29;20048;-78
2023/09/19 05:49:34;;;;;;;5.97;1.17;;;;;;;;;;4929733;29;20415;-79
2023/09/19 05:52:01;;;;;;;4.03;1.20;;;;;;;;;;4934455;29;20023;-78
2023/09/19 05:54:27;;;;;;;2.25;1.02;;;;;;;;;;4930647;29;20036;-79
2023/09/19 05:56:53;;;;;;;5.45;1.60;;;;;;;;;;4929557;29;20040;-79
2023/09/19 05:59:18;;;;;;;3.95;0.88;;;;;;;;;;4928689;29;20040;-78
2023/09/19 06:01:43;;;;;;;2.33;0.93;;;;;;;;;;4929346;29;20024;-78
2023/09/19 06:04:09;;;;;;;4.33;1.27;;;;;;;;;;4933481;29;20164;-78
2023/09/19 06:06:39;;;;;;;3.97;1.83;;;;;;;;;;4928977;29;20290;-78
2023/09/19 06:09:05;;;;;;;3.17;1.10;;;;;;;;;;4934964;29;20318;-79
2023/09/19 06:11:33;;;;;;;3.10;1.15;;;;;;;;;;4928336;29;20043;-79
2023/09/19 06:14:01;;;;;;;2.80;1.23;;;;;;;;;;4928533;29;20062;-78
2023/09/19 06:16:27;;;;;;;2.42;1.10;;;;;;;;;;4927490;29;20043;-78
2023/09/19 06:18:52;;;;;;;2.80;1.25;;;;;;;;;;4923903;29;20039;-78
2023/09/19 06:21:18;;;;;;;1.83;1.00;;;;;;;;;;4929876;29;20059;-79
2023/09/19 06:23:43;;;;;;;2.65;0.80;;;;;;;;;;4932356;29;20130;-79
2023/09/19 06:26:09;;;;;;;4.05;0.90;;;;;;;;;;4923388;29;20076;-79
2023/09/19 06:28:34;;;;;;;3.95;1.20;;;;;;;;;;4926430;29;20519;-79
2023/09/19 06:31:02;;;;;;;4.30;1.38;;;;;;;;;;4928205;29;20095;-78
2023/09/19 06:33:27;;;;;;;3.28;1.40;;;;;;;;;;4927564;29;20040;-79
2023/09/19 06:35:59;;;;;;;2.73;0.90;;;;;;;;;;4927750;29;20038;-79
2023/09/19 06:38:24;;;;;;;3.47;1.35;;;;;;;;;;4928774;29;20279;-79
2023/09/19 06:40:49;;;;;;;4.15;1.30;;;;;;;;;;4924089;29;20408;-79
2023/09/19 06:43:14;;;;;;;1.80;0.77;;;;;;;;;;4931058;29;20042;-79
2023/09/19 06:45:39;;;;;;;2.85;1.13;;;;;;;;;;4930581;29;20027;-79
2023/09/19 06:48:05;;;;;;;6.53;1.00;;;;;;;;;;4929229;29;20027;-79
2023/09/19 06:50:30;;;;;;;2.42;1.00;;;;;;;;;;4924239;29;20367;-79
2023/09/19 06:52:57;;;;;;;4.05;1.38;;;;;;;;;;4925022;29;20032;-79
2023/09/19 06:55:27;;;;;;;4.70;1.45;;;;;;;;;;4919724;29;20048;-79
2023/09/19 06:57:54;;;;;;;5.07;1.08;;;;;;;;;;4932977;29;20044;-79
2023/09/19 07:00:21;;;;;;;4.80;1.02;;;;;;;;;;4931453;29;20043;-78
2023/09/19 07:02:57;;;;;;;3.28;1.17;;;;;;;;;;4932259;29;20019;-78
2023/09/19 07:05:22;;;;;;;2.88;0.90;;;;;;;;;;4927636;29;20119;-79
2023/09/19 07:07:47;;;;;;;3.20;0.65;;;;;;;;;;4917994;29;20068;-79
2023/09/19 07:10:13;;;;;;;3.42;1.23;;;;;;;;;;4923625;29;20090;-79
2023/09/19 07:12:38;;;;;;;2.72;1.13;;;;;;;;;;4926216;29;20412;-78
2023/09/19 07:15:05;;;;;;;1.70;0.70;;;;;;;;;;4931523;29;20033;-79
2023/09/19 07:17:32;;;;;;;5.65;1.30;;;;;;;;;;4930210;29;20039;-78
2023/09/19 07:19:58;;;;;;;3.08;1.00;;;;;;;;;;4932813;29;20115;-78
2023/09/19 07:22:23;;;;;;;3.15;1.20;;;;;;;;;;4931100;29;20087;-79
2023/09/19 07:24:49;;;;;;;2.38;0.90;;;;;;;;;;4943501;28;20036;-79
2023/09/19 07:27:14;;;;;;;2.17;1.07;;;;;;;;;;4926658;29;20112;-79
2023/09/19 07:29:39;;;;;;;2.40;0.98;;;;;;;;;;4930695;29;20771;-79
2023/09/19 07:32:05;;;;;;;2.43;1.10;;;;;;;;;;4932452;29;20083;-79
2023/09/19 07:34:31;;;;;;;3.03;1.33;;;;;;;;;;4931252;29;20685;-79
2023/09/19 07:36:56;;;;;;;2.43;1.00;;;;;;;;;;4944540;28;20036;-79
2023/09/19 07:39:21;;;;;;;2.47;1.13;;;;;;;;;;4923903;29;20395;-79
2023/09/19 07:41:48;;;;;;;3.22;1.25;;;;;;;;;;4931346;29;20024;-79
2023/09/19 07:44:14;;;;;;;3.10;1.15;;;;;;;;;;4929254;29;20107;-79
2023/09/19 07:46:39;;;;;;;2.50;0.88;;;;;;;;;;4931877;29;20062;-79
2023/09/19 07:49:05;;;;;;;1.98;0.80;;;;;;;;;;4929091;29;20564;-79
2023/09/19 07:51:30;;;;;;;3.58;1.13;;;;;;;;;;4928738;29;20043;-79
2023/09/19 07:53:55;;;;;;;4.07;1.02;;;;;;;;;;4917802;29;20055;-79
2023/09/19 07:56:22;;;;;;;2.72;1.00;;;;;;;;;;4930385;29;20040;-79
2023/09/19 07:58:47;;;;;;;4.95;0.95;;;;;;;;;;4930151;29;20067;-79
2023/09/19 08:01:13;;;;;;;3.28;0.98;;;;;;;;;;4931211;29;20056;-79
2023/09/19 08:03:43;;;;;;;2.67;0.98;;;;;;;;;;4929573;29;20115;-79
2023/09/19 08:06:09;;;;;;;4.82;1.15;;;;;;;;;;4930180;29;20545;-79
2023/09/19 08:08:37;;;;;;;2.85;1.00;;;;;;;;;;4931492;29;20126;-79
2023/09/19 08:11:10;;;;;;;2.90;1.05;;;;;;;;;;4927033;29;20073;-79
2023/09/19 08:13:35;;;;;;;2.42;0.90;;;;;;;;;;4935928;29;20046;-78
2023/09/19 08:16:00;;;;;;;3.85;0.85;;;;;;;;;;4932844;29;20024;-79
2023/09/19 08:18:26;;;;;;;6.10;1.10;;;;;;;;;;4926824;29;20556;-79
2023/09/19 08:20:52;;;;;;;5.50;1.25;;;;;;;;;;4932040;29;20288;-79
2023/09/19 08:23:19;;;;;;;3.10;1.10;;;;;;;;;;4929809;29;20031;-79
2023/09/19 08:25:45;;;;;;;4.18;1.80;;;;;;;;;;4932400;29;20027;-78
2023/09/19 08:28:12;;;;;;;5.20;1.38;;;;;;;;;;4929811;29;20032;-79
2023/09/19 08:30:40;;;;;;;4.45;1.33;;;;;;;;;;4928956;29;20042;-79
2023/09/19 08:33:06;;;;;;;8.55;1.10;;;;;;;;;;4938291;29;20038;-81
2023/09/19 08:35:31;;;;;;;8.20;1.40;;;;;;;;;;4932111;29;20064;-81
2023/09/19 08:37:57;;;;;;;5.88;1.65;;;;;;;;;;4933902;29;20036;-81
2023/09/19 08:40:22;;;;;;;2.53;0.80;;;;;;;;;;4929214;29;20043;-81
2023/09/19 08:42:49;;;;;;;1.45;0.85;;;;;;;;;;4932940;29;20094;-81
2023/09/19 08:45:15;;;;;;;3.70;0.80;;;;;;;;;;4929034;29;20028;-81
2023/09/19 08:47:45;;;;;;;3.90;1.88;;;;;;;;;;4923526;29;20024;-81
2023/09/19 08:50:18;;;;;;;16.45;2.60;;;;;;;;;;4931334;29;20123;-81
2023/09/19 08:52:46;;;;;;;32.38;4.18;;;;;;;;;;4933782;29;20133;-81
2023/09/19 08:55:13;;;;;;;31.48;5.60;;;;;;;;;;4937263;29;20040;-81
2023/09/19 08:57:41;;;;;;;2.50;0.80;;;;;;;;;;4931886;29;20036;-81
2023/09/19 09:00:10;;;;;;;2.25;0.88;;;;;;;;;;4923618;29;20087;-81
2023/09/19 09:02:36;;;;;;;4.55;0.85;;;;;;;;;;4929956;29;20141;-81
2023/09/19 09:05:05;;;;;;;2.63;0.85;;;;;;;;;;4931067;29;20028;-81
2023/09/19 09:07:30;;;;;;;2.95;1.05;;;;;;;;;;4928841;29;20119;-81
2023/09/19 09:09:56;;;;;;;2.13;0.90;;;;;;;;;;4932703;29;20059;-81
2023/09/19 09:12:21;;;;;;;4.18;0.98;;;;;;;;;;4930094;29;20082;-81
2023/09/19 09:14:50;;;;;;;3.50;0.90;;;;;;;;;;4924299;29;20056;-81
2023/09/19 09:17:16;;;;;;;2.92;0.80;;;;;;;;;;4918300;29;20043;-81
2023/09/19 09:19:42;;;;;;;4.22;0.80;;;;;;;;;;4929866;29;20576;-79
2023/09/19 09:22:11;;;;;;;3.63;1.00;;;;;;;;;;4934439;29;20028;-79
2023/09/19 09:24:38;;;;;;;2.70;0.80;;;;;;;;;;4926907;29;20043;-79
2023/09/19 09:27:10;;;;;;;3.83;0.82;;;;;;;;;;4931031;29;20027;-79
2023/09/19 09:29:47;;;;;;;2.45;0.80;;;;;;;;;;4926314;29;20035;-79
2023/09/19 09:32:19;;;;;;;3.83;1.20;;;;;;;;;;4928720;29;20094;-80
2023/09/19 09:34:45;;;;;;;2.25;0.90;;;;;;;;;;4927276;29;20028;-79
2023/09/19 09:37:15;;;;;;;3.55;0.98;;;;;;;;;;4934375;29;20094;-79
2023/09/19 09:39:48;;;;;;;3.60;1.13;;;;;;;;;;4932451;29;20119;-79
2023/09/19 09:42:31;;;;;;;3.13;1.00;;;;;;;;;;4930077;29;20035;-79
2023/09/19 09:45:12;;;;;;;2.88;0.98;;;;;;;;;;4930032;29;20031;-79
2023/09/19 09:47:57;;;;;;;5.30;1.10;;;;;;;;;;4930952;29;20420;-79
2023/09/19 09:50:28;;;;;;;3.70;1.27;;;;;;;;;;4928761;29;20175;-79
2023/09/19 09:52:55;;;;;;;2.72;0.68;;;;;;;;;;4931865;29;20171;-79
2023/09/19 09:55:20;;;;;;;3.47;0.85;;;;;;;;;;4916041;29;20050;-79
2023/09/19 09:57:46;;;;;;;2.53;0.87;;;;;;;;;;4930280;29;20111;-79
2023/09/19 10:02:39;;;;;;;2.58;0.82;;;;;;;;;;4932033;29;20778;-79
2023/09/19 10:05:21;;;;;;;3.97;0.77;;;;;;;;;;4927428;29;20486;-79
2023/09/19 10:08:08;;;;;;;6.00;0.93;;;;;;;;;;4944618;28;20031;-79
2023/09/19 10:13:12;;;;;;;2.85;0.75;;;;;;;;;;4931873;29;20493;-78
2023/09/19 10:15:37;;;;;;;3.00;0.90;;;;;;;;;;4936886;29;20039;-79
2023/09/19 10:18:08;;;;;;;3.05;0.80;;;;;;;;;;4932495;29;20103;-79
2023/09/19 10:20:35;;;;;;;3.35;1.17;;;;;;;;;;4934804;29;20040;-79
2023/09/19 10:23:01;;;;;;;3.45;1.00;;;;;;;;;;4931270;29;20028;-78
2023/09/19 10:25:28;;;;;;;4.70;1.20;;;;;;;;;;4931048;29;20102;-79
2023/09/19 10:27:55;;;;;;;5.53;1.75;;;;;;;;;;4928058;29;20156;-80
2023/09/19 10:30:22;;;;;;;2.15;0.90;;;;;;;;;;4927703;29;20036;-78
2023/09/19 10:32:50;;;;;;;4.88;1.35;;;;;;;;;;4931778;29;20130;-79
2023/09/19 10:35:16;;;;;;;5.13;1.63;;;;;;;;;;4928284;29;20039;-79
2023/09/19 10:37:44;;;;;;;3.13;0.98;;;;;;;;;;4928725;29;20038;-80
2023/09/19 10:40:11;;;;;;;3.22;1.08;;;;;;;;;;4924455;29;20040;-79
2023/09/19 10:42:38;;;;;;;3.45;1.23;;;;;;;;;;4920422;29;20111;-79
2023/09/19 10:45:07;;;;;;;6.60;1.60;;;;;;;;;;4926154;29;20047;-79
2023/09/19 10:47:32;;;;;;;4.13;1.30;;;;;;;;;;4924081;29;20079;-79
2023/09/19 10:49:58;;;;;;;5.30;1.00;;;;;;;;;;4921587;29;20036;-79
2023/09/19 10:52:24;;;;;;;4.53;1.23;;;;;;;;;;4926956;29;20046;-79
2023/09/19 10:54:51;;;;;;;4.05;1.23;;;;;;;;;;4923531;29;20035;-79
2023/09/19 10:57:27;;;;;;;4.72;1.65;;;;;;;;;;4925756;29;20043;-79
2023/09/19 11:00:21;;;;;;;4.85;1.30;;;;;;;;;;4928462;29;20610;-81
2023/09/19 11:03:06;;;;;;;4.05;1.20;;;;;;;;;;4932547;29;20070;-80
2023/09/19 11:05:32;;;;;;;4.15;1.40;;;;;;;;;;4934628;29;20424;-80
2023/09/19 11:07:57;;;;;;;4.18;1.40;;;;;;;;;;4927086;29;20031;-80
2023/09/19 11:10:41;;;;;;;3.55;1.20;;;;;;;;;;4929916;29;20043;-80
2023/09/19 11:13:23;;;;;;;5.05;1.35;;;;;;;;;;4924911;29;20043;-79
2023/09/19 11:15:57;;;;;;;2.95;1.10;;;;;;;;;;4930156;29;20319;-79
2023/09/19 11:18:41;;;;;;;4.18;1.10;;;;;;;;;;4925298;29;20039;-79
2023/09/19 11:21:27;;;;;;;4.70;1.13;;;;;;;;;;4932915;29;20055;-79
2023/09/19 11:24:11;;;;;;;2.97;1.17;;;;;;;;;;4925390;29;20678;-80
2023/09/19 11:26:43;;;;;;;3.33;1.45;;;;;;;;;;4925967;29;20111;-79
2023/09/19 11:29:24;;;;;;;4.00;1.10;;;;;;;;;;4927047;29;20040;-80
2023/09/19 11:31:51;;;;;;;2.45;1.13;;;;;;;;;;4928149;28;20115;-80
2023/09/19 11:34:35;;;;;;;4.40;1.30;;;;;;;;;;4923385;29;20036;-80
2023/09/19 11:37:01;;;;;;;3.17;1.20;;;;;;;;;;4935898;29;20114;-80
2023/09/19 11:39:27;;;;;;;3.65;1.20;;;;;;;;;;4928822;29;20048;-79
2023/09/19 11:41:56;;;;;;;5.30;1.33;;;;;;;;;;4933289;29;20036;-80
2023/09/19 11:44:30;;;;;;;4.78;1.20;;;;;;;;;;4931330;29;20497;-79
2023/09/19 11:46:56;;;;;;;3.58;1.33;;;;;;;;;;4927015;29;20036;-80
2023/09/19 11:49:29;;;;;;;2.83;1.38;;;;;;;;;;4929417;29;20041;-80
2023/09/19 11:51:55;;;;;;;3.35;1.50;;;;;;;;;;4931603;29;20031;-79
2023/09/19 11:54:27;;;;;;;3.08;1.08;;;;;;;;;;4930911;29;20039;-80
2023/09/19 11:56:54;;;;;;;3.25;1.27;;;;;;;;;;4930926;29;20118;-80
2023/09/19 11:59:29;;;;;;;8.18;1.75;;;;;;;;;;4927531;29;20095;-80
2023/09/19 12:01:58;;;;;;;5.53;1.13;;;;;;;;;;4929983;29;20031;-80
2023/09/19 12:04:39;;;;;;;3.65;1.38;;;;;;;;;;4929595;29;20524;-80
2023/09/19 12:07:15;;;;;;;2.67;1.00;;;;;;;;;;4925684;29;20087;-80
2023/09/19 12:09:42;;;;;;;2.30;1.13;;;;;;;;;;4936729;29;20094;-79
2023/09/19 12:12:09;;;;;;;3.83;0.98;;;;;;;;;;4933079;29;20441;-80
2023/09/19 12:14:34;;;;;;;5.15;1.48;;;;;;;;;;4929974;29;20451;-80
2023/09/19 12:17:01;;;;;;;4.22;1.10;;;;;;;;;;4928520;29;20044;-80
2023/09/19 12:19:28;;;;;;;4.63;1.33;;;;;;;;;;4933077;29;20042;-79
2023/09/19 12:21:54;;;;;;;3.15;1.08;;;;;;;;;;4931035;29;20039;-80
2023/09/19 12:24:19;;;;;;;2.97;1.08;;;;;;;;;;4934123;29;20032;-80
2023/09/19 12:26:47;;;;;;;3.88;1.00;;;;;;;;;;4931757;29;20028;-80
2023/09/19 12:29:20;;;;;;;2.38;0.85;;;;;;;;;;4925794;29;20043;-80
2023/09/19 12:31:55;;;;;;;4.15;1.40;;;;;;;;;;4929198;29;20043;-79
2023/09/19 12:34:27;;;;;;;4.80;1.30;;;;;;;;;;4931502;29;20107;-80
2023/09/19 12:37:03;;;;;;;3.70;1.27;;;;;;;;;;4932366;29;20047;-80
2023/09/19 12:39:29;;;;;;;4.57;1.20;;;;;;;;;;4932524;29;20035;-80
2023/09/19 12:41:55;;;;;;;4.60;1.40;;;;;;;;;;4929976;29;20075;-80
2023/09/19 12:44:20;;;;;;;4.15;1.40;;;;;;;;;;4908491;29;20500;-80
2023/09/19 12:46:45;;;;;;;5.78;1.33;;;;;;;;;;4930845;29;20064;-80
2023/09/19 12:49:17;;;;;;;3.63;1.37;;;;;;;;;;4932984;29;20035;-80
2023/09/19 12:51:43;;;;;;;4.13;1.40;;;;;;;;;;4931118;29;20276;-80
2023/09/19 12:54:10;;;;;;;4.07;1.42;;;;;;;;;;4927766;29;20040;-80
2023/09/19 12:56:48;;;;;;;6.88;1.55;;;;;;;;;;4925872;29;20509;-80
2023/09/19 12:59:14;;;;;;;8.05;1.83;;;;;;;;;;4933722;29;20491;-80
2023/09/19 13:01:43;;;;;;;3.95;1.60;;;;;;;;;;4932818;29;20139;-80
2023/09/19 13:04:19;;;;;;;3.15;1.25;;;;;;;;;;4926852;29;20036;-80
2023/09/19 13:06:45;;;;;;;4.40;1.40;;;;;;;;;;4930986;29;20032;-80
2023/09/19 13:09:11;;;;;;;4.13;1.33;;;;;;;;;;4936337;29;20027;-79
2023/09/19 13:11:40;;;;;;;3.40;1.20;;;;;;;;;;4929839;29;20408;-80
2023/09/19 13:14:16;;;;;;;6.75;1.83;;;;;;;;;;4931556;29;20031;-79
2023/09/19 13:17:04;;;;;;;2.85;1.23;;;;;;;;;;4929040;29;20059;-79
2023/09/19 13:19:35;;;;;;;4.95;1.38;;;;;;;;;;4927172;29;20044;-80
2023/09/19 13:22:01;;;;;;;;;;;;;;;;;;4933159;29;20082;-80
2023/09/19 13:24:27;;;;;;;3.42;1.33;;;;;;;;;;4927496;29;19911;-80
2023/09/19 13:26:52;;;;;;;5.55;1.60;;;;;;;;;;4927907;29;20024;-80
2023/09/19 13:29:18;;;;;;;4.57;1.30;;;;;;;;;;4927728;29;20048;-80
2023/09/19 13:31:52;;;;;;;3.65;1.60;;;;;;;;;;4929747;29;20374;-80
2023/09/19 13:34:18;;;;;;;3.20;1.25;;;;;;;;;;4934723;29;20040;-80
2023/09/19 13:36:44;;;;;;;3.47;1.20;;;;;;;;;;4928262;29;20024;-80
2023/09/19 13:39:09;;;;;;;3.60;1.50;;;;;;;;;;4922452;29;20038;-80
2023/09/19 13:41:36;;;;;;;3.17;1.10;;;;;;;;;;4927650;29;20032;-80
2023/09/19 13:44:02;;;;;;;5.78;1.10;;;;;;;;;;4934034;29;20279;-80
2023/09/19 13:46:27;;;;;;;4.65;1.50;;;;;;;;;;4931940;29;20677;-80
2023/09/19 13:48:54;;;;;;;5.70;1.60;;;;;;;;;;4931517;29;20477;-79
2023/09/19 13:51:21;;;;;;;4.40;1.20;;;;;;;;;;4929041;29;20042;-80
2023/09/19 13:53:46;;;;;;;4.85;1.50;;;;;;;;;;4927534;29;20413;-80
2023/09/19 13:56:12;;;;;;;4.15;1.10;;;;;;;;;;4932478;29;20039;-80
2023/09/19 13:58:37;;;;;;;3.95;1.45;;;;;;;;;;4926107;29;20028;-79
2023/09/19 14:01:03;;;;;;;4.43;1.40;;;;;;;;;;4928806;29;20020;-80
2023/09/19 14:03:28;;;;;;;9.57;2.33;;;;;;;;;;4932488;29;20031;-80
2023/09/19 14:05:53;;;;;;;4.90;1.53;;;;;;;;;;4929926;29;20377;-80
2023/09/19 14:08:18;;;;;;;5.57;1.35;;;;;;;;;;4929089;29;20071;-80
2023/09/19 14:10:44;;;;;;;4.30;1.27;;;;;;;;;;4933985;29;20420;-80
2023/09/19 14:13:12;;;;;;;4.97;1.27;;;;;;;;;;4930640;29;20036;-80
2023/09/19 14:15:38;;;;;;;6.00;1.65;;;;;;;;;;4936065;29;20118;-80
2023/09/19 14:18:04;;;;;;;3.47;1.27;;;;;;;;;;4928885;29;20464;-80
2023/09/19 14:20:30;;;;;;;3.92;1.48;;;;;;;;;;4926401;29;20043;-80
2023/09/19 14:22:58;;;;;;;5.50;1.90;;;;;;;;;;4929794;29;20077;-79
2023/09/19 14:25:24;;;;;;;5.53;1.30;;;;;;;;;;4933607;29;20032;-80
2023/09/19 14:27:49;;;;;;;5.20;1.60;;;;;;;;;;4933428;29;20044;-80
2023/09/19 14:30:14;;;;;;;4.43;1.60;;;;;;;;;;4935621;29;20094;-80
2023/09/19 14:32:40;;;;;;;5.03;1.60;;;;;;;;;;4928158;29;20416;-80
2023/09/19 14:35:06;;;;;;;5.72;1.50;;;;;;;;;;4927803;29;20807;-79
2023/09/19 14:37:31;;;;;;;4.32;1.60;;;;;;;;;;4931779;29;20063;-80
2023/09/19 14:39:56;;;;;;;4.03;1.40;;;;;;;;;;4928717;29;20040;-79
2023/09/19 14:42:22;;;;;;;5.33;1.80;;;;;;;;;;4934024;29;20513;-80
2023/09/19 14:44:48;;;;;;;3.75;1.50;;;;;;;;;;4934618;29;20878;-80
2023/09/19 14:47:13;;;;;;;4.22;1.65;;;;;;;;;;4926026;29;20515;-77
2023/09/19 14:49:39;;;;;;;5.45;1.55;;;;;;;;;;4921962;29;20027;-76
2023/09/19 14:52:08;;;;;;;4.43;2.10;;;;;;;;;;4922657;29;20039;-76